Aquebogue, New York
Current Conditions -  °F | °C
As of 3:53 AM on Monday 20 Oct 2014 (Local Time) from KFOK Reporting Station
Clear Clear  
Wind Chill: -1°   Ceiling: Unl
Heat Index: -1°   Visibility: 10mi
Dew Point: -4°   Wind: 0mph
Humidity: 76%   Direction: NA
Pressure: 30.08"   Gusts: NA
Location:  40.94°N, 72.61°W
Report Text: KFOK 200753Z AUTO 00000KT 10SM CLR M01/M04 A3008 RMK AO2 SLP185 T10061044 TSNO
Loading
Personal Weather Stations






























Interactive Weather Map
Tropical Storm Tracking
New forecast layout! Learn more

10-Day Weather Forecast

Advertisements
Track Severe Weather on mobile